sensor_id;sensor_type;location;lat;lon;timestamp;P1;durP1;ratioP1;P2;durP2;ratioP2
11386;SDS011;5748;53.102;8.456;2023-07-13T00:00:28;1.30;;;1.20;;
11386;SDS011;5748;53.102;8.456;2023-07-13T00:02:57;1.40;;;1.23;;
11386;SDS011;5748;53.102;8.456;2023-07-13T00:05:24;1.10;;;1.10;;
11386;SDS011;5748;53.102;8.456;2023-07-13T00:07:52;1.30;;;1.20;;
11386;SDS011;5748;53.102;8.456;2023-07-13T00:10:21;1.00;;;1.00;;
11386;SDS011;5748;53.102;8.456;2023-07-13T00:12:48;0.93;;;0.90;;
11386;SDS011;5748;53.102;8.456;2023-07-13T00:15:17;3.37;;;1.20;;
11386;SDS011;5748;53.102;8.456;2023-07-13T00:17:47;1.10;;;1.10;;
11386;SDS011;5748;53.102;8.456;2023-07-13T00:20:15;1.40;;;1.30;;
11386;SDS011;5748;53.102;8.456;2023-07-13T00:22:42;1.40;;;1.30;;
11386;SDS011;5748;53.102;8.456;2023-07-13T00:25:10;1.20;;;1.10;;
11386;SDS011;5748;53.102;8.456;2023-07-13T00:27:38;1.00;;;1.00;;
11386;SDS011;5748;53.102;8.456;2023-07-13T00:30:06;1.40;;;1.20;;
11386;SDS011;5748;53.102;8.456;2023-07-13T00:32:34;1.37;;;1.27;;
11386;SDS011;5748;53.102;8.456;2023-07-13T00:35:01;1.37;;;1.27;;
11386;SDS011;5748;53.102;8.456;2023-07-13T00:37:29;1.20;;;1.20;;
11386;SDS011;5748;53.102;8.456;2023-07-13T00:39:56;1.30;;;1.20;;
11386;SDS011;5748;53.102;8.456;2023-07-13T00:42:23;1.20;;;1.20;;
11386;SDS011;5748;53.102;8.456;2023-07-13T00:45:04;1.20;;;1.20;;
11386;SDS011;5748;53.102;8.456;2023-07-13T00:47:54;1.30;;;1.20;;
11386;SDS011;5748;53.102;8.456;2023-07-13T00:50:22;1.20;;;1.20;;
11386;SDS011;5748;53.102;8.456;2023-07-13T00:52:50;1.47;;;1.37;;
11386;SDS011;5748;53.102;8.456;2023-07-13T00:55:23;1.30;;;1.20;;
11386;SDS011;5748;53.102;8.456;2023-07-13T00:57:50;1.37;;;1.27;;
11386;SDS011;5748;53.102;8.456;2023-07-13T01:00:18;1.43;;;1.33;;
11386;SDS011;5748;53.102;8.456;2023-07-13T01:02:48;1.60;;;1.50;;
11386;SDS011;5748;53.102;8.456;2023-07-13T01:05:16;1.37;;;1.30;;
11386;SDS011;5748;53.102;8.456;2023-07-13T01:07:45;1.37;;;1.27;;
11386;SDS011;5748;53.102;8.456;2023-07-13T01:10:21;1.83;;;1.47;;
11386;SDS011;5748;53.102;8.456;2023-07-13T01:12:49;1.50;;;1.40;;
11386;SDS011;5748;53.102;8.456;2023-07-13T01:15:37;1.50;;;1.23;;
11386;SDS011;5748;53.102;8.456;2023-07-13T01:18:08;1.20;;;1.20;;
11386;SDS011;5748;53.102;8.456;2023-07-13T01:20:38;1.40;;;1.30;;
11386;SDS011;5748;53.102;8.456;2023-07-13T01:23:08;1.33;;;1.20;;
11386;SDS011;5748;53.102;8.456;2023-07-13T01:25:38;1.53;;;1.43;;
11386;SDS011;5748;53.102;8.456;2023-07-13T01:28:05;1.63;;;1.53;;
11386;SDS011;5748;53.102;8.456;2023-07-13T01:30:34;1.77;;;1.67;;
11386;SDS011;5748;53.102;8.456;2023-07-13T01:33:05;1.63;;;1.40;;
11386;SDS011;5748;53.102;8.456;2023-07-13T01:35:32;1.60;;;1.50;;
11386;SDS011;5748;53.102;8.456;2023-07-13T01:37:59;1.70;;;1.60;;
11386;SDS011;5748;53.102;8.456;2023-07-13T01:40:28;1.57;;;1.37;;
11386;SDS011;5748;53.102;8.456;2023-07-13T01:42:56;1.60;;;1.50;;
11386;SDS011;5748;53.102;8.456;2023-07-13T01:45:24;1.73;;;1.40;;
11386;SDS011;5748;53.102;8.456;2023-07-13T01:47:50;1.50;;;1.40;;
11386;SDS011;5748;53.102;8.456;2023-07-13T01:50:17;1.67;;;1.50;;
11386;SDS011;5748;53.102;8.456;2023-07-13T01:52:45;1.60;;;1.50;;
11386;SDS011;5748;53.102;8.456;2023-07-13T01:55:11;1.93;;;1.30;;
11386;SDS011;5748;53.102;8.456;2023-07-13T01:57:40;1.33;;;1.27;;
11386;SDS011;5748;53.102;8.456;2023-07-13T02:00:08;1.90;;;1.70;;
11386;SDS011;5748;53.102;8.456;2023-07-13T02:02:37;1.50;;;1.40;;
11386;SDS011;5748;53.102;8.456;2023-07-13T02:05:04;1.60;;;1.50;;
11386;SDS011;5748;53.102;8.456;2023-07-13T02:07:33;1.40;;;1.30;;
11386;SDS011;5748;53.102;8.456;2023-07-13T02:10:00;1.90;;;1.53;;
11386;SDS011;5748;53.102;8.456;2023-07-13T02:12:27;1.60;;;1.47;;
11386;SDS011;5748;53.102;8.456;2023-07-13T02:14:55;1.50;;;1.40;;
11386;SDS011;5748;53.102;8.456;2023-07-13T02:17:22;1.40;;;1.30;;
11386;SDS011;5748;53.102;8.456;2023-07-13T02:19:49;1.87;;;1.43;;
11386;SDS011;5748;53.102;8.456;2023-07-13T02:22:16;1.50;;;1.40;;
11386;SDS011;5748;53.102;8.456;2023-07-13T02:24:43;1.50;;;1.40;;
11386;SDS011;5748;53.102;8.456;2023-07-13T02:27:10;1.40;;;1.30;;
11386;SDS011;5748;53.102;8.456;2023-07-13T02:29:37;1.80;;;1.40;;
11386;SDS011;5748;53.102;8.456;2023-07-13T02:32:06;1.70;;;1.50;;
11386;SDS011;5748;53.102;8.456;2023-07-13T02:34:34;1.50;;;1.40;;
11386;SDS011;5748;53.102;8.456;2023-07-13T02:37:01;1.53;;;1.43;;
11386;SDS011;5748;53.102;8.456;2023-07-13T02:39:28;1.50;;;1.40;;
11386;SDS011;5748;53.102;8.456;2023-07-13T02:41:57;1.40;;;1.30;;
11386;SDS011;5748;53.102;8.456;2023-07-13T02:44:24;1.40;;;1.30;;
11386;SDS011;5748;53.102;8.456;2023-07-13T02:46:51;2.20;;;1.40;;
11386;SDS011;5748;53.102;8.456;2023-07-13T02:49:20;3.43;;;2.03;;
11386;SDS011;5748;53.102;8.456;2023-07-13T02:51:47;2.07;;;1.87;;
11386;SDS011;5748;53.102;8.456;2023-07-13T02:54:14;1.67;;;1.57;;
11386;SDS011;5748;53.102;8.456;2023-07-13T02:56:41;2.57;;;1.67;;
11386;SDS011;5748;53.102;8.456;2023-07-13T02:59:08;1.90;;;1.57;;
11386;SDS011;5748;53.102;8.456;2023-07-13T03:01:36;4.47;;;1.93;;
11386;SDS011;5748;53.102;8.456;2023-07-13T03:04:03;1.83;;;1.70;;
11386;SDS011;5748;53.102;8.456;2023-07-13T03:06:32;1.60;;;1.50;;
11386;SDS011;5748;53.102;8.456;2023-07-13T03:08:59;2.00;;;1.73;;
11386;SDS011;5748;53.102;8.456;2023-07-13T03:11:26;1.43;;;1.33;;
11386;SDS011;5748;53.102;8.456;2023-07-13T03:13:53;1.57;;;1.30;;
11386;SDS011;5748;53.102;8.456;2023-07-13T03:16:21;1.97;;;1.50;;
11386;SDS011;5748;53.102;8.456;2023-07-13T03:18:48;1.50;;;1.40;;
11386;SDS011;5748;53.102;8.456;2023-07-13T03:21:15;1.50;;;1.30;;
11386;SDS011;5748;53.102;8.456;2023-07-13T03:23:44;2.07;;;1.70;;
11386;SDS011;5748;53.102;8.456;2023-07-13T03:26:12;1.50;;;1.40;;
11386;SDS011;5748;53.102;8.456;2023-07-13T03:28:42;2.13;;;1.50;;
11386;SDS011;5748;53.102;8.456;2023-07-13T03:31:11;1.80;;;1.57;;
11386;SDS011;5748;53.102;8.456;2023-07-13T03:33:40;2.10;;;1.90;;
11386;SDS011;5748;53.102;8.456;2023-07-13T03:36:12;1.87;;;1.50;;
11386;SDS011;5748;53.102;8.456;2023-07-13T03:38:45;1.83;;;1.30;;
11386;SDS011;5748;53.102;8.456;2023-07-13T03:41:13;2.10;;;1.40;;
11386;SDS011;5748;53.102;8.456;2023-07-13T03:43:40;1.40;;;1.30;;
11386;SDS011;5748;53.102;8.456;2023-07-13T03:46:07;1.83;;;1.23;;
11386;SDS011;5748;53.102;8.456;2023-07-13T03:48:34;1.50;;;1.40;;
11386;SDS011;5748;53.102;8.456;2023-07-13T03:51:01;1.83;;;1.43;;
11386;SDS011;5748;53.102;8.456;2023-07-13T03:53:28;1.70;;;1.30;;
11386;SDS011;5748;53.102;8.456;2023-07-13T03:55:57;1.30;;;1.20;;
11386;SDS011;5748;53.102;8.456;2023-07-13T03:58:26;1.77;;;1.30;;
11386;SDS011;5748;53.102;8.456;2023-07-13T04:00:59;2.53;;;1.37;;
11386;SDS011;5748;53.102;8.456;2023-07-13T04:03:28;1.53;;;1.40;;
11386;SDS011;5748;53.102;8.456;2023-07-13T04:05:57;2.30;;;1.53;;
11386;SDS011;5748;53.102;8.456;2023-07-13T04:08:26;2.03;;;1.40;;
11386;SDS011;5748;53.102;8.456;2023-07-13T04:10:53;1.97;;;1.77;;
11386;SDS011;5748;53.102;8.456;2023-07-13T04:13:22;4.97;;;3.10;;
11386;SDS011;5748;53.102;8.456;2023-07-13T04:15:50;4.27;;;3.00;;
11386;SDS011;5748;53.102;8.456;2023-07-13T04:18:17;3.00;;;2.03;;
11386;SDS011;5748;53.102;8.456;2023-07-13T04:20:45;3.57;;;1.87;;
11386;SDS011;5748;53.102;8.456;2023-07-13T04:23:12;2.60;;;1.53;;
11386;SDS011;5748;53.102;8.456;2023-07-13T04:25:42;2.70;;;1.50;;
11386;SDS011;5748;53.102;8.456;2023-07-13T04:28:09;2.80;;;1.83;;
11386;SDS011;5748;53.102;8.456;2023-07-13T04:30:37;4.47;;;1.90;;
11386;SDS011;5748;53.102;8.456;2023-07-13T04:33:04;2.57;;;1.70;;
11386;SDS011;5748;53.102;8.456;2023-07-13T04:35:31;2.40;;;1.57;;
11386;SDS011;5748;53.102;8.456;2023-07-13T04:37:58;2.60;;;1.67;;
11386;SDS011;5748;53.102;8.456;2023-07-13T04:40:25;2.60;;;1.60;;
11386;SDS011;5748;53.102;8.456;2023-07-13T04:42:54;1.80;;;1.23;;
11386;SDS011;5748;53.102;8.456;2023-07-13T04:45:22;3.67;;;1.27;;
11386;SDS011;5748;53.102;8.456;2023-07-13T04:47:51;2.20;;;1.50;;
11386;SDS011;5748;53.102;8.456;2023-07-13T04:50:18;2.30;;;1.53;;
11386;SDS011;5748;53.102;8.456;2023-07-13T04:52:48;1.40;;;1.20;;
11386;SDS011;5748;53.102;8.456;2023-07-13T04:55:16;1.57;;;1.30;;
11386;SDS011;5748;53.102;8.456;2023-07-13T04:57:43;1.57;;;1.30;;
11386;SDS011;5748;53.102;8.456;2023-07-13T05:00:11;1.90;;;1.33;;
11386;SDS011;5748;53.102;8.456;2023-07-13T05:02:41;2.13;;;1.27;;
11386;SDS011;5748;53.102;8.456;2023-07-13T05:05:12;1.20;;;1.10;;
11386;SDS011;5748;53.102;8.456;2023-07-13T05:07:39;2.20;;;1.60;;
11386;SDS011;5748;53.102;8.456;2023-07-13T05:10:07;1.30;;;1.20;;
11386;SDS011;5748;53.102;8.456;2023-07-13T05:12:35;1.40;;;1.30;;
11386;SDS011;5748;53.102;8.456;2023-07-13T05:15:02;1.57;;;1.33;;
11386;SDS011;5748;53.102;8.456;2023-07-13T05:17:30;1.73;;;1.50;;
11386;SDS011;5748;53.102;8.456;2023-07-13T05:19:57;2.93;;;1.50;;
11386;SDS011;5748;53.102;8.456;2023-07-13T05:22:25;2.00;;;1.40;;
11386;SDS011;5748;53.102;8.456;2023-07-13T05:24:52;1.57;;;1.33;;
11386;SDS011;5748;53.102;8.456;2023-07-13T05:27:20;2.23;;;1.40;;
11386;SDS011;5748;53.102;8.456;2023-07-13T05:29:46;2.57;;;1.40;;
11386;SDS011;5748;53.102;8.456;2023-07-13T05:32:13;1.33;;;1.20;;
11386;SDS011;5748;53.102;8.456;2023-07-13T05:34:40;1.57;;;1.10;;
11386;SDS011;5748;53.102;8.456;2023-07-13T05:37:07;2.03;;;1.43;;
11386;SDS011;5748;53.102;8.456;2023-07-13T05:39:36;2.13;;;1.40;;
11386;SDS011;5748;53.102;8.456;2023-07-13T05:42:03;1.63;;;1.23;;
11386;SDS011;5748;53.102;8.456;2023-07-13T05:44:31;3.10;;;1.40;;
11386;SDS011;5748;53.102;8.456;2023-07-13T05:46:58;3.07;;;1.70;;
11386;SDS011;5748;53.102;8.456;2023-07-13T05:49:25;3.87;;;1.63;;
11386;SDS011;5748;53.102;8.456;2023-07-13T05:51:52;2.07;;;1.40;;
11386;SDS011;5748;53.102;8.456;2023-07-13T05:54:19;1.83;;;1.47;;
11386;SDS011;5748;53.102;8.456;2023-07-13T05:56:47;1.50;;;1.20;;
11386;SDS011;5748;53.102;8.456;2023-07-13T05:59:14;5.93;;;2.27;;
11386;SDS011;5748;53.102;8.456;2023-07-13T06:01:41;2.17;;;1.50;;
11386;SDS011;5748;53.102;8.456;2023-07-13T06:04:10;1.63;;;1.30;;
11386;SDS011;5748;53.102;8.456;2023-07-13T06:06:43;2.10;;;1.43;;
11386;SDS011;5748;53.102;8.456;2023-07-13T06:09:10;2.23;;;1.60;;
11386;SDS011;5748;53.102;8.456;2023-07-13T06:11:37;3.37;;;1.70;;
11386;SDS011;5748;53.102;8.456;2023-07-13T06:14:06;1.73;;;1.27;;
11386;SDS011;5748;53.102;8.456;2023-07-13T06:16:33;2.80;;;1.60;;
11386;SDS011;5748;53.102;8.456;2023-07-13T06:19:00;3.83;;;1.63;;
11386;SDS011;5748;53.102;8.456;2023-07-13T06:21:27;2.77;;;1.87;;
11386;SDS011;5748;53.102;8.456;2023-07-13T06:23:54;1.87;;;1.50;;
11386;SDS011;5748;53.102;8.456;2023-07-13T06:26:21;2.07;;;1.47;;
11386;SDS011;5748;53.102;8.456;2023-07-13T06:28:52;2.27;;;1.27;;
11386;SDS011;5748;53.102;8.456;2023-07-13T06:31:21;2.37;;;1.50;;
11386;SDS011;5748;53.102;8.456;2023-07-13T06:33:48;2.50;;;1.73;;
11386;SDS011;5748;53.102;8.456;2023-07-13T06:36:15;1.40;;;1.23;;
11386;SDS011;5748;53.102;8.456;2023-07-13T06:38:42;2.37;;;1.67;;
11386;SDS011;5748;53.102;8.456;2023-07-13T06:41:11;2.07;;;1.40;;
11386;SDS011;5748;53.102;8.456;2023-07-13T06:43:44;4.17;;;1.77;;
11386;SDS011;5748;53.102;8.456;2023-07-13T06:46:10;3.23;;;1.87;;
11386;SDS011;5748;53.102;8.456;2023-07-13T06:48:39;2.33;;;1.70;;
11386;SDS011;5748;53.102;8.456;2023-07-13T06:51:06;2.37;;;1.77;;
11386;SDS011;5748;53.102;8.456;2023-07-13T06:53:33;2.23;;;1.43;;
11386;SDS011;5748;53.102;8.456;2023-07-13T06:56:00;2.17;;;1.47;;
11386;SDS011;5748;53.102;8.456;2023-07-13T06:58:26;2.00;;;1.50;;
11386;SDS011;5748;53.102;8.456;2023-07-13T07:00:53;2.97;;;1.37;;
11386;SDS011;5748;53.102;8.456;2023-07-13T07:03:20;2.23;;;1.40;;
11386;SDS011;5748;53.102;8.456;2023-07-13T07:05:49;2.73;;;1.40;;
11386;SDS011;5748;53.102;8.456;2023-07-13T07:08:16;3.17;;;1.70;;
11386;SDS011;5748;53.102;8.456;2023-07-13T07:10:43;2.20;;;1.60;;
11386;SDS011;5748;53.102;8.456;2023-07-13T07:13:10;1.80;;;1.53;;
11386;SDS011;5748;53.102;8.456;2023-07-13T07:15:37;2.20;;;1.63;;
11386;SDS011;5748;53.102;8.456;2023-07-13T07:18:04;2.80;;;1.80;;
11386;SDS011;5748;53.102;8.456;2023-07-13T07:20:31;1.43;;;1.23;;
11386;SDS011;5748;53.102;8.456;2023-07-13T07:22:59;3.15;;;1.42;;
11386;SDS011;5748;53.102;8.456;2023-07-13T07:25:26;2.78;;;1.77;;
11386;SDS011;5748;53.102;8.456;2023-07-13T07:27:56;1.67;;;1.40;;
11386;SDS011;5748;53.102;8.456;2023-07-13T07:30:24;3.13;;;1.70;;
11386;SDS011;5748;53.102;8.456;2023-07-13T07:32:51;1.88;;;1.38;;
11386;SDS011;5748;53.102;8.456;2023-07-13T07:35:18;2.33;;;1.50;;
11386;SDS011;5748;53.102;8.456;2023-07-13T07:37:45;2.20;;;2.00;;
11386;SDS011;5748;53.102;8.456;2023-07-13T07:40:14;2.88;;;2.03;;
11386;SDS011;5748;53.102;8.456;2023-07-13T07:42:41;2.70;;;1.80;;
11386;SDS011;5748;53.102;8.456;2023-07-13T07:45:09;2.53;;;1.70;;
11386;SDS011;5748;53.102;8.456;2023-07-13T07:47:37;1.60;;;1.50;;
11386;SDS011;5748;53.102;8.456;2023-07-13T07:50:04;3.05;;;1.60;;
11386;SDS011;5748;53.102;8.456;2023-07-13T07:52:32;1.50;;;1.40;;
11386;SDS011;5748;53.102;8.456;2023-07-13T07:54:59;1.75;;;1.50;;
11386;SDS011;5748;53.102;8.456;2023-07-13T07:57:27;1.52;;;1.35;;
11386;SDS011;5748;53.102;8.456;2023-07-13T07:59:54;1.40;;;1.30;;
11386;SDS011;5748;53.102;8.456;2023-07-13T08:02:21;2.88;;;1.58;;
11386;SDS011;5748;53.102;8.456;2023-07-13T08:04:48;5.03;;;1.77;;
11386;SDS011;5748;53.102;8.456;2023-07-13T08:07:15;2.45;;;1.35;;
11386;SDS011;5748;53.102;8.456;2023-07-13T08:09:42;1.73;;;1.23;;
11386;SDS011;5748;53.102;8.456;2023-07-13T08:12:09;2.08;;;1.30;;
11386;SDS011;5748;53.102;8.456;2023-07-13T08:14:38;1.77;;;1.38;;
11386;SDS011;5748;53.102;8.456;2023-07-13T08:17:04;1.52;;;1.30;;
11386;SDS011;5748;53.102;8.456;2023-07-13T08:19:32;1.40;;;1.30;;
11386;SDS011;5748;53.102;8.456;2023-07-13T08:21:59;2.92;;;1.30;;
11386;SDS011;5748;53.102;8.456;2023-07-13T08:24:25;1.77;;;1.40;;
11386;SDS011;5748;53.102;8.456;2023-07-13T08:26:52;2.38;;;1.30;;
11386;SDS011;5748;53.102;8.456;2023-07-13T08:29:20;1.45;;;1.25;;
11386;SDS011;5748;53.102;8.456;2023-07-13T08:31:48;1.42;;;1.20;;
11386;SDS011;5748;53.102;8.456;2023-07-13T08:34:15;3.45;;;1.40;;
11386;SDS011;5748;53.102;8.456;2023-07-13T08:36:42;0.98;;;0.93;;
11386;SDS011;5748;53.102;8.456;2023-07-13T08:39:09;1.77;;;1.50;;
11386;SDS011;5748;53.102;8.456;2023-07-13T08:41:36;1.58;;;1.48;;
11386;SDS011;5748;53.102;8.456;2023-07-13T08:44:04;1.83;;;1.25;;
11386;SDS011;5748;53.102;8.456;2023-07-13T08:46:44;2.17;;;1.27;;
11386;SDS011;5748;53.102;8.456;2023-07-13T08:49:15;1.20;;;1.10;;
11386;SDS011;5748;53.102;8.456;2023-07-13T08:51:48;1.33;;;1.20;;
11386;SDS011;5748;53.102;8.456;2023-07-13T08:54:19;1.55;;;1.20;;
11386;SDS011;5748;53.102;8.456;2023-07-13T08:56:50;1.30;;;1.20;;
11386;SDS011;5748;53.102;8.456;2023-07-13T08:59:20;1.40;;;1.00;;
11386;SDS011;5748;53.102;8.456;2023-07-13T09:01:54;2.72;;;1.30;;
11386;SDS011;5748;53.102;8.456;2023-07-13T09:04:49;2.88;;;1.00;;
11386;SDS011;5748;53.102;8.456;2023-07-13T09:07:24;1.60;;;1.10;;
11386;SDS011;5748;53.102;8.456;2023-07-13T09:10:11;1.42;;;1.10;;
11386;SDS011;5748;53.102;8.456;2023-07-13T09:12:45;0.93;;;0.90;;
11386;SDS011;5748;53.102;8.456;2023-07-13T09:15:27;1.60;;;1.13;;
11386;SDS011;5748;53.102;8.456;2023-07-13T09:17:59;1.02;;;0.88;;
11386;SDS011;5748;53.102;8.456;2023-07-13T09:20:34;1.33;;;1.23;;
11386;SDS011;5748;53.102;8.456;2023-07-13T09:23:04;2.03;;;1.20;;
11386;SDS011;5748;53.102;8.456;2023-07-13T09:25:38;1.10;;;1.00;;
11386;SDS011;5748;53.102;8.456;2023-07-13T09:28:11;1.00;;;0.90;;
11386;SDS011;5748;53.102;8.456;2023-07-13T09:30:45;0.90;;;0.90;;
11386;SDS011;5748;53.102;8.456;2023-07-13T09:33:18;1.98;;;1.38;;
11386;SDS011;5748;53.102;8.456;2023-07-13T09:35:46;1.10;;;1.00;;
11386;SDS011;5748;53.102;8.456;2023-07-13T09:38:15;1.00;;;0.90;;
11386;SDS011;5748;53.102;8.456;2023-07-13T09:40:49;1.20;;;1.10;;
11386;SDS011;5748;53.102;8.456;2023-07-13T09:43:37;1.13;;;1.02;;
11386;SDS011;5748;53.102;8.456;2023-07-13T09:46:04;1.48;;;1.10;;
11386;SDS011;5748;53.102;8.456;2023-07-13T09:48:46;1.25;;;1.10;;
11386;SDS011;5748;53.102;8.456;2023-07-13T09:51:15;1.10;;;1.00;;
11386;SDS011;5748;53.102;8.456;2023-07-13T09:53:42;1.13;;;0.98;;
11386;SDS011;5748;53.102;8.456;2023-07-13T09:56:18;1.10;;;1.00;;
11386;SDS011;5748;53.102;8.456;2023-07-13T09:58:47;1.20;;;1.10;;
11386;SDS011;5748;53.102;8.456;2023-07-13T10:01:14;0.95;;;0.90;;
11386;SDS011;5748;53.102;8.456;2023-07-13T10:03:51;1.30;;;1.00;;
11386;SDS011;5748;53.102;8.456;2023-07-13T10:06:21;0.98;;;0.90;;
11386;SDS011;5748;53.102;8.456;2023-07-13T10:08:49;0.90;;;0.90;;
11386;SDS011;5748;53.102;8.456;2023-07-13T10:11:17;1.25;;;0.90;;
11386;SDS011;5748;53.102;8.456;2023-07-13T10:13:50;1.30;;;1.00;;
11386;SDS011;5748;53.102;8.456;2023-07-13T10:16:21;1.20;;;1.10;;
11386;SDS011;5748;53.102;8.456;2023-07-13T10:18:49;2.13;;;1.30;;
11386;SDS011;5748;53.102;8.456;2023-07-13T10:21:23;1.20;;;1.10;;
11386;SDS011;5748;53.102;8.456;2023-07-13T10:23:57;1.65;;;1.20;;
11386;SDS011;5748;53.102;8.456;2023-07-13T10:26:33;1.40;;;1.10;;
11386;SDS011;5748;53.102;8.456;2023-07-13T10:29:02;1.50;;;1.13;;
11386;SDS011;5748;53.102;8.456;2023-07-13T10:31:40;1.02;;;0.82;;
11386;SDS011;5748;53.102;8.456;2023-07-13T10:34:09;0.85;;;0.80;;
11386;SDS011;5748;53.102;8.456;2023-07-13T10:36:40;1.10;;;0.95;;
11386;SDS011;5748;53.102;8.456;2023-07-13T10:39:15;1.70;;;1.10;;
11386;SDS011;5748;53.102;8.456;2023-07-13T10:41:46;0.93;;;0.88;;
11386;SDS011;5748;53.102;8.456;2023-07-13T10:44:20;3.53;;;1.20;;
11386;SDS011;5748;53.102;8.456;2023-07-13T10:46:54;1.17;;;1.08;;
11386;SDS011;5748;53.102;8.456;2023-07-13T10:49:22;1.15;;;1.02;;
11386;SDS011;5748;53.102;8.456;2023-07-13T10:51:51;1.17;;;1.08;;
11386;SDS011;5748;53.102;8.456;2023-07-13T10:54:19;1.10;;;1.00;;
11386;SDS011;5748;53.102;8.456;2023-07-13T10:56:51;0.90;;;0.90;;
11386;SDS011;5748;53.102;8.456;2023-07-13T10:59:34;1.13;;;1.00;;
11386;SDS011;5748;53.102;8.456;2023-07-13T11:02:09;1.10;;;1.00;;
11386;SDS011;5748;53.102;8.456;2023-07-13T11:04:42;1.52;;;1.20;;
11386;SDS011;5748;53.102;8.456;2023-07-13T11:07:19;2.88;;;1.33;;
11386;SDS011;5748;53.102;8.456;2023-07-13T11:09:51;1.33;;;1.13;;
11386;SDS011;5748;53.102;8.456;2023-07-13T11:12:27;1.02;;;1.00;;
11386;SDS011;5748;53.102;8.456;2023-07-13T11:15:32;1.25;;;1.10;;
11386;SDS011;5748;53.102;8.456;2023-07-13T11:18:19;2.15;;;1.10;;
11386;SDS011;5748;53.102;8.456;2023-07-13T11:20:50;1.25;;;1.10;;
11386;SDS011;5748;53.102;8.456;2023-07-13T11:23:20;0.90;;;0.90;;
11386;SDS011;5748;53.102;8.456;2023-07-13T11:25:57;1.13;;;0.90;;
11386;SDS011;5748;53.102;8.456;2023-07-13T11:28:26;0.68;;;0.68;;
11386;SDS011;5748;53.102;8.456;2023-07-13T11:31:12;1.25;;;0.70;;
11386;SDS011;5748;53.102;8.456;2023-07-13T11:33:56;0.90;;;0.70;;
11386;SDS011;5748;53.102;8.456;2023-07-13T11:36:24;0.73;;;0.70;;
11386;SDS011;5748;53.102;8.456;2023-07-13T11:39:00;0.90;;;0.80;;
11386;SDS011;5748;53.102;8.456;2023-07-13T11:41:31;0.80;;;0.80;;
11386;SDS011;5748;53.102;8.456;2023-07-13T11:44:08;0.90;;;0.90;;
11386;SDS011;5748;53.102;8.456;2023-07-13T11:46:43;0.60;;;0.60;;
11386;SDS011;5748;53.102;8.456;2023-07-13T11:49:13;0.70;;;0.70;;
11386;SDS011;5748;53.102;8.456;2023-07-13T11:51:43;1.13;;;0.90;;
11386;SDS011;5748;53.102;8.456;2023-07-13T11:54:19;0.80;;;0.77;;
11386;SDS011;5748;53.102;8.456;2023-07-13T11:56:52;1.50;;;1.00;;
11386;SDS011;5748;53.102;8.456;2023-07-13T11:59:22;0.70;;;0.70;;
11386;SDS011;5748;53.102;8.456;2023-07-13T12:01:50;0.70;;;0.70;;
11386;SDS011;5748;53.102;8.456;2023-07-13T12:04:20;0.70;;;0.70;;
11386;SDS011;5748;53.102;8.456;2023-07-13T12:06:55;0.70;;;0.70;;
11386;SDS011;5748;53.102;8.456;2023-07-13T12:09:27;0.67;;;0.67;;
11386;SDS011;5748;53.102;8.456;2023-07-13T12:11:56;0.70;;;0.70;;
11386;SDS011;5748;53.102;8.456;2023-07-13T12:14:26;0.80;;;0.80;;
11386;SDS011;5748;53.102;8.456;2023-07-13T12:16:53;0.70;;;0.70;;
11386;SDS011;5748;53.102;8.456;2023-07-13T12:19:22;0.90;;;0.90;;
11386;SDS011;5748;53.102;8.456;2023-07-13T12:21:52;0.70;;;0.70;;
11386;SDS011;5748;53.102;8.456;2023-07-13T12:24:22;0.80;;;0.70;;
11386;SDS011;5748;53.102;8.456;2023-07-13T12:26:55;0.70;;;0.70;;
11386;SDS011;5748;53.102;8.456;2023-07-13T12:29:27;0.77;;;0.77;;
11386;SDS011;5748;53.102;8.456;2023-07-13T12:31:54;0.80;;;0.80;;
11386;SDS011;5748;53.102;8.456;2023-07-13T12:34:22;1.05;;;0.98;;
11386;SDS011;5748;53.102;8.456;2023-07-13T12:36:52;1.02;;;1.00;;
11386;SDS011;5748;53.102;8.456;2023-07-13T12:39:22;0.90;;;0.90;;
11386;SDS011;5748;53.102;8.456;2023-07-13T12:41:52;0.80;;;0.80;;
11386;SDS011;5748;53.102;8.456;2023-07-13T12:44:40;0.90;;;0.90;;
11386;SDS011;5748;53.102;8.456;2023-07-13T12:47:14;0.80;;;0.80;;
11386;SDS011;5748;53.102;8.456;2023-07-13T12:49:43;0.75;;;0.75;;
11386;SDS011;5748;53.102;8.456;2023-07-13T12:52:17;0.77;;;0.77;;
11386;SDS011;5748;53.102;8.456;2023-07-13T12:54:53;0.75;;;0.75;;
11386;SDS011;5748;53.102;8.456;2023-07-13T12:57:24;0.80;;;0.70;;
11386;SDS011;5748;53.102;8.456;2023-07-13T12:59:51;1.05;;;0.80;;
11386;SDS011;5748;53.102;8.456;2023-07-13T13:02:21;0.88;;;0.88;;
11386;SDS011;5748;53.102;8.456;2023-07-13T13:04:55;0.82;;;0.82;;
11386;SDS011;5748;53.102;8.456;2023-07-13T13:07:23;0.82;;;0.80;;
11386;SDS011;5748;53.102;8.456;2023-07-13T13:09:51;0.70;;;0.70;;
11386;SDS011;5748;53.102;8.456;2023-07-13T13:12:20;0.85;;;0.85;;
11386;SDS011;5748;53.102;8.456;2023-07-13T13:14:48;0.90;;;0.90;;
11386;SDS011;5748;53.102;8.456;2023-07-13T13:17:18;0.65;;;0.65;;
11386;SDS011;5748;53.102;8.456;2023-07-13T13:19:52;0.80;;;0.80;;
11386;SDS011;5748;53.102;8.456;2023-07-13T13:22:20;0.80;;;0.80;;
11386;SDS011;5748;53.102;8.456;2023-07-13T13:24:48;0.70;;;0.70;;
11386;SDS011;5748;53.102;8.456;2023-07-13T13:27:15;0.73;;;0.73;;
11386;SDS011;5748;53.102;8.456;2023-07-13T13:29:44;0.80;;;0.80;;
11386;SDS011;5748;53.102;8.456;2023-07-13T13:32:17;1.00;;;1.00;;
11386;SDS011;5748;53.102;8.456;2023-07-13T13:34:44;0.80;;;0.80;;
11386;SDS011;5748;53.102;8.456;2023-07-13T13:37:19;0.60;;;0.60;;
11386;SDS011;5748;53.102;8.456;2023-07-13T13:39:50;0.98;;;0.70;;
11386;SDS011;5748;53.102;8.456;2023-07-13T13:42:18;0.80;;;0.80;;
11386;SDS011;5748;53.102;8.456;2023-07-13T13:44:47;0.80;;;0.80;;
11386;SDS011;5748;53.102;8.456;2023-07-13T13:47:19;0.70;;;0.70;;
11386;SDS011;5748;53.102;8.456;2023-07-13T13:49:55;0.70;;;0.70;;
11386;SDS011;5748;53.102;8.456;2023-07-13T13:52:23;1.00;;;0.70;;
11386;SDS011;5748;53.102;8.456;2023-07-13T13:54:50;0.80;;;0.80;;
11386;SDS011;5748;53.102;8.456;2023-07-13T13:57:20;0.80;;;0.80;;
11386;SDS011;5748;53.102;8.456;2023-07-13T13:59:50;0.90;;;0.90;;
11386;SDS011;5748;53.102;8.456;2023-07-13T14:02:22;0.90;;;0.90;;
11386;SDS011;5748;53.102;8.456;2023-07-13T14:04:53;0.98;;;0.90;;
11386;SDS011;5748;53.102;8.456;2023-07-13T14:07:23;1.10;;;1.00;;
11386;SDS011;5748;53.102;8.456;2023-07-13T14:09:51;1.20;;;1.10;;
11386;SDS011;5748;53.102;8.456;2023-07-13T14:12:18;1.58;;;1.15;;
11386;SDS011;5748;53.102;8.456;2023-07-13T14:14:46;0.90;;;0.90;;
11386;SDS011;5748;53.102;8.456;2023-07-13T14:17:18;1.08;;;1.08;;
11386;SDS011;5748;53.102;8.456;2023-07-13T14:19:48;1.10;;;1.00;;
11386;SDS011;5748;53.102;8.456;2023-07-13T14:22:21;1.40;;;1.30;;
11386;SDS011;5748;53.102;8.456;2023-07-13T14:24:49;1.20;;;1.20;;
11386;SDS011;5748;53.102;8.456;2023-07-13T14:27:18;1.45;;;1.35;;
11386;SDS011;5748;53.102;8.456;2023-07-13T14:29:45;1.27;;;1.17;;
11386;SDS011;5748;53.102;8.456;2023-07-13T14:32:12;1.30;;;1.20;;
11386;SDS011;5748;53.102;8.456;2023-07-13T14:34:41;1.20;;;1.10;;
11386;SDS011;5748;53.102;8.456;2023-07-13T14:37:11;1.00;;;1.00;;
11386;SDS011;5748;53.102;8.456;2023-07-13T14:39:42;1.00;;;1.00;;
11386;SDS011;5748;53.102;8.456;2023-07-13T14:42:10;1.00;;;0.82;;
11386;SDS011;5748;53.102;8.456;2023-07-13T14:44:38;0.88;;;0.88;;
11386;SDS011;5748;53.102;8.456;2023-07-13T14:47:05;0.70;;;0.70;;
11386;SDS011;5748;53.102;8.456;2023-07-13T14:49:34;0.73;;;0.68;;
11386;SDS011;5748;53.102;8.456;2023-07-13T14:52:09;0.60;;;0.60;;
11386;SDS011;5748;53.102;8.456;2023-07-13T14:54:38;1.00;;;0.80;;
11386;SDS011;5748;53.102;8.456;2023-07-13T14:57:09;0.70;;;0.70;;
11386;SDS011;5748;53.102;8.456;2023-07-13T14:59:37;0.77;;;0.77;;
11386;SDS011;5748;53.102;8.456;2023-07-13T15:02:09;0.85;;;0.70;;
11386;SDS011;5748;53.102;8.456;2023-07-13T15:04:42;1.35;;;0.65;;
11386;SDS011;5748;53.102;8.456;2023-07-13T15:07:11;0.70;;;0.70;;
11386;SDS011;5748;53.102;8.456;2023-07-13T15:09:41;0.83;;;0.83;;
11386;SDS011;5748;53.102;8.456;2023-07-13T15:12:08;3.23;;;1.00;;
11386;SDS011;5748;53.102;8.456;2023-07-13T15:14:35;0.67;;;0.67;;